sensor_id;sensor_type;location;lat;lon;timestamp;P1;durP1;ratioP1;P2;durP2;ratioP2
13267;SDS011;6702;47.068;15.458;2022-10-17T00:03:00;35.63;;;28.67;;
13267;SDS011;6702;47.068;15.458;2022-10-17T00:06:04;36.90;;;30.03;;
13267;SDS011;6702;47.068;15.458;2022-10-17T00:09:08;32.90;;;27.00;;
13267;SDS011;6702;47.068;15.458;2022-10-17T00:12:11;38.60;;;28.70;;
13267;SDS011;6702;47.068;15.458;2022-10-17T00:15:17;33.70;;;28.50;;
13267;SDS011;6702;47.068;15.458;2022-10-17T00:18:29;41.13;;;31.63;;
13267;SDS011;6702;47.068;15.458;2022-10-17T00:22:48;34.43;;;29.00;;
13267;SDS011;6702;47.068;15.458;2022-10-17T04:16:09;33.90;;;29.13;;
13267;SDS011;6702;47.068;15.458;2022-10-17T04:58:50;28.60;;;24.10;;
13267;SDS011;6702;47.068;15.458;2022-10-17T05:01:53;35.17;;;26.77;;
13267;SDS011;6702;47.068;15.458;2022-10-17T05:04:56;31.20;;;26.13;;
13267;SDS011;6702;47.068;15.458;2022-10-17T05:07:59;29.67;;;26.37;;
13267;SDS011;6702;47.068;15.458;2022-10-17T05:11:03;35.03;;;31.63;;
13267;SDS011;6702;47.068;15.458;2022-10-17T05:14:08;45.57;;;40.47;;
13267;SDS011;6702;47.068;15.458;2022-10-17T05:17:11;55.13;;;46.73;;
13267;SDS011;6702;47.068;15.458;2022-10-17T05:20:14;49.93;;;41.80;;
13267;SDS011;6702;47.068;15.458;2022-10-17T05:23:17;40.40;;;31.57;;
13267;SDS011;6702;47.068;15.458;2022-10-17T05:26:21;37.53;;;31.77;;
13267;SDS011;6702;47.068;15.458;2022-10-17T05:29:26;34.90;;;27.43;;
13267;SDS011;6702;47.068;15.458;2022-10-17T05:32:29;60.30;;;41.43;;
13267;SDS011;6702;47.068;15.458;2022-10-17T05:35:32;95.03;;;64.77;;
13267;SDS011;6702;47.068;15.458;2022-10-17T05:38:35;52.50;;;39.90;;
13267;SDS011;6702;47.068;15.458;2022-10-17T05:41:39;50.40;;;37.70;;
13267;SDS011;6702;47.068;15.458;2022-10-17T05:44:43;49.83;;;37.07;;
13267;SDS011;6702;47.068;15.458;2022-10-17T05:47:46;39.10;;;31.07;;
13267;SDS011;6702;47.068;15.458;2022-10-17T05:50:56;65.20;;;44.23;;
13267;SDS011;6702;47.068;15.458;2022-10-17T05:54:00;42.07;;;31.80;;
13267;SDS011;6702;47.068;15.458;2022-10-17T05:57:03;61.93;;;44.30;;
13267;SDS011;6702;47.068;15.458;2022-10-17T06:00:08;37.93;;;30.37;;
13267;SDS011;6702;47.068;15.458;2022-10-17T06:03:12;37.50;;;30.70;;
13267;SDS011;6702;47.068;15.458;2022-10-17T06:06:16;34.90;;;29.23;;
13267;SDS011;6702;47.068;15.458;2022-10-17T06:09:19;34.03;;;28.87;;
13267;SDS011;6702;47.068;15.458;2022-10-17T06:12:22;31.63;;;28.17;;
13267;SDS011;6702;47.068;15.458;2022-10-17T06:15:27;30.67;;;27.63;;
13267;SDS011;6702;47.068;15.458;2022-10-17T06:18:30;34.10;;;30.07;;
13267;SDS011;6702;47.068;15.458;2022-10-17T06:21:33;32.90;;;29.40;;
13267;SDS011;6702;47.068;15.458;2022-10-17T06:24:38;30.07;;;26.77;;
13267;SDS011;6702;47.068;15.458;2022-10-17T06:27:41;29.20;;;25.10;;
13267;SDS011;6702;47.068;15.458;2022-10-17T06:30:45;31.30;;;26.87;;
13267;SDS011;6702;47.068;15.458;2022-10-17T06:33:48;33.87;;;29.50;;
13267;SDS011;6702;47.068;15.458;2022-10-17T06:36:52;32.10;;;28.53;;
13267;SDS011;6702;47.068;15.458;2022-10-17T06:39:55;30.20;;;27.07;;
13267;SDS011;6702;47.068;15.458;2022-10-17T06:42:58;29.70;;;26.50;;
13267;SDS011;6702;47.068;15.458;2022-10-17T06:46:02;30.73;;;26.50;;
13267;SDS011;6702;47.068;15.458;2022-10-17T06:49:06;30.27;;;27.17;;
13267;SDS011;6702;47.068;15.458;2022-10-17T06:52:11;27.80;;;24.40;;
13267;SDS011;6702;47.068;15.458;2022-10-17T06:55:15;27.50;;;24.60;;
13267;SDS011;6702;47.068;15.458;2022-10-17T06:58:23;28.93;;;24.07;;
13267;SDS011;6702;47.068;15.458;2022-10-17T07:01:29;26.00;;;23.20;;
13267;SDS011;6702;47.068;15.458;2022-10-17T07:04:32;29.20;;;23.93;;
13267;SDS011;6702;47.068;15.458;2022-10-17T07:07:35;24.70;;;22.10;;
13267;SDS011;6702;47.068;15.458;2022-10-17T07:10:44;30.37;;;24.03;;
13267;SDS011;6702;47.068;15.458;2022-10-17T07:13:47;23.13;;;20.63;;
13267;SDS011;6702;47.068;15.458;2022-10-17T07:16:52;23.73;;;21.17;;
13267;SDS011;6702;47.068;15.458;2022-10-17T07:19:56;24.43;;;21.90;;
13267;SDS011;6702;47.068;15.458;2022-10-17T07:22:59;24.60;;;21.60;;
13267;SDS011;6702;47.068;15.458;2022-10-17T07:26:04;24.03;;;21.50;;
13267;SDS011;6702;47.068;15.458;2022-10-17T07:29:09;23.77;;;20.00;;
13267;SDS011;6702;47.068;15.458;2022-10-17T07:32:14;23.13;;;20.00;;
13267;SDS011;6702;47.068;15.458;2022-10-17T07:35:17;24.27;;;20.90;;
13267;SDS011;6702;47.068;15.458;2022-10-17T07:38:20;22.47;;;19.90;;
13267;SDS011;6702;47.068;15.458;2022-10-17T07:41:23;22.10;;;19.87;;
13267;SDS011;6702;47.068;15.458;2022-10-17T07:44:26;25.00;;;21.17;;
13267;SDS011;6702;47.068;15.458;2022-10-17T07:47:31;23.63;;;19.77;;
13267;SDS011;6702;47.068;15.458;2022-10-17T07:50:36;26.50;;;20.90;;
13267;SDS011;6702;47.068;15.458;2022-10-17T07:53:39;22.77;;;20.47;;
13267;SDS011;6702;47.068;15.458;2022-10-17T07:56:48;26.93;;;22.60;;
13267;SDS011;6702;47.068;15.458;2022-10-17T07:59:52;24.87;;;20.60;;
13267;SDS011;6702;47.068;15.458;2022-10-17T08:02:56;25.60;;;20.67;;
13267;SDS011;6702;47.068;15.458;2022-10-17T08:06:00;24.63;;;20.77;;
13267;SDS011;6702;47.068;15.458;2022-10-17T08:09:04;22.83;;;19.40;;
13267;SDS011;6702;47.068;15.458;2022-10-17T08:12:07;24.63;;;19.20;;
13267;SDS011;6702;47.068;15.458;2022-10-17T08:15:10;23.73;;;20.30;;
13267;SDS011;6702;47.068;15.458;2022-10-17T08:18:15;21.50;;;19.60;;
13267;SDS011;6702;47.068;15.458;2022-10-17T08:21:19;21.73;;;19.60;;
13267;SDS011;6702;47.068;15.458;2022-10-17T08:24:22;21.17;;;19.25;;
13267;SDS011;6702;47.068;15.458;2022-10-17T08:27:25;21.48;;;19.17;;
13267;SDS011;6702;47.068;15.458;2022-10-17T08:30:29;21.52;;;19.20;;
13267;SDS011;6702;47.068;15.458;2022-10-17T08:33:33;21.15;;;19.25;;
13267;SDS011;6702;47.068;15.458;2022-10-17T08:36:36;21.67;;;19.63;;
13267;SDS011;6702;47.068;15.458;2022-10-17T08:39:40;19.92;;;18.23;;
13267;SDS011;6702;47.068;15.458;2022-10-17T08:42:47;19.13;;;17.70;;
13267;SDS011;6702;47.068;15.458;2022-10-17T08:46:00;21.23;;;19.63;;
13267;SDS011;6702;47.068;15.458;2022-10-17T08:49:09;20.13;;;18.50;;
13267;SDS011;6702;47.068;15.458;2022-10-17T08:52:17;20.63;;;18.73;;
13267;SDS011;6702;47.068;15.458;2022-10-17T08:55:31;20.10;;;18.38;;
13267;SDS011;6702;47.068;15.458;2022-10-17T08:58:43;21.35;;;19.60;;
13267;SDS011;6702;47.068;15.458;2022-10-17T09:01:47;21.10;;;19.45;;
13267;SDS011;6702;47.068;15.458;2022-10-17T09:05:00;21.90;;;19.63;;
13267;SDS011;6702;47.068;15.458;2022-10-17T09:08:30;21.65;;;19.70;;
13267;SDS011;6702;47.068;15.458;2022-10-17T09:11:42;20.10;;;18.52;;
13267;SDS011;6702;47.068;15.458;2022-10-17T09:14:59;20.38;;;18.60;;
13267;SDS011;6702;47.068;15.458;2022-10-17T09:18:12;22.10;;;19.98;;
13267;SDS011;6702;47.068;15.458;2022-10-17T09:21:24;21.65;;;19.77;;
13267;SDS011;6702;47.068;15.458;2022-10-17T09:24:37;21.25;;;19.55;;
13267;SDS011;6702;47.068;15.458;2022-10-17T09:27:44;20.60;;;19.08;;
13267;SDS011;6702;47.068;15.458;2022-10-17T09:30:52;20.58;;;19.08;;
13267;SDS011;6702;47.068;15.458;2022-10-17T09:34:00;20.65;;;19.02;;
13267;SDS011;6702;47.068;15.458;2022-10-17T09:37:05;21.00;;;19.48;;
13267;SDS011;6702;47.068;15.458;2022-10-17T09:40:15;19.88;;;18.10;;
13267;SDS011;6702;47.068;15.458;2022-10-17T09:43:21;19.20;;;17.92;;
13267;SDS011;6702;47.068;15.458;2022-10-17T09:46:25;20.55;;;18.88;;
13267;SDS011;6702;47.068;15.458;2022-10-17T09:49:34;20.20;;;18.80;;
13267;SDS011;6702;47.068;15.458;2022-10-17T09:52:41;19.95;;;18.35;;
13267;SDS011;6702;47.068;15.458;2022-10-17T09:55:48;20.52;;;18.83;;
13267;SDS011;6702;47.068;15.458;2022-10-17T09:58:56;20.58;;;18.88;;
13267;SDS011;6702;47.068;15.458;2022-10-17T10:02:06;22.25;;;20.60;;
13267;SDS011;6702;47.068;15.458;2022-10-17T10:05:13;20.42;;;18.70;;
13267;SDS011;6702;47.068;15.458;2022-10-17T10:08:20;21.95;;;20.05;;
13267;SDS011;6702;47.068;15.458;2022-10-17T10:11:43;21.27;;;19.77;;
13267;SDS011;6702;47.068;15.458;2022-10-17T10:14:48;20.85;;;19.27;;
13267;SDS011;6702;47.068;15.458;2022-10-17T10:17:55;18.33;;;17.08;;
13267;SDS011;6702;47.068;15.458;2022-10-17T10:21:06;20.63;;;18.80;;
13267;SDS011;6702;47.068;15.458;2022-10-17T10:24:12;18.80;;;17.45;;
13267;SDS011;6702;47.068;15.458;2022-10-17T10:27:16;21.10;;;19.40;;
13267;SDS011;6702;47.068;15.458;2022-10-17T10:30:22;19.27;;;17.88;;
13267;SDS011;6702;47.068;15.458;2022-10-17T10:33:30;17.75;;;16.42;;
13267;SDS011;6702;47.068;15.458;2022-10-17T10:36:47;19.90;;;18.52;;
13267;SDS011;6702;47.068;15.458;2022-10-17T10:40:00;17.42;;;16.23;;
13267;SDS011;6702;47.068;15.458;2022-10-17T10:43:04;19.23;;;17.58;;
13267;SDS011;6702;47.068;15.458;2022-10-17T10:46:15;18.05;;;16.55;;
13267;SDS011;6702;47.068;15.458;2022-10-17T10:49:27;17.77;;;16.65;;
13267;SDS011;6702;47.068;15.458;2022-10-17T10:52:32;17.70;;;16.40;;
13267;SDS011;6702;47.068;15.458;2022-10-17T10:55:45;18.08;;;16.98;;
13267;SDS011;6702;47.068;15.458;2022-10-17T10:58:53;19.63;;;17.88;;
13267;SDS011;6702;47.068;15.458;2022-10-17T11:01:59;18.90;;;17.52;;
13267;SDS011;6702;47.068;15.458;2022-10-17T11:05:11;18.23;;;16.92;;
13267;SDS011;6702;47.068;15.458;2022-10-17T11:08:19;18.58;;;16.90;;
13267;SDS011;6702;47.068;15.458;2022-10-17T11:11:30;20.08;;;18.48;;
13267;SDS011;6702;47.068;15.458;2022-10-17T11:14:41;18.38;;;16.98;;
13267;SDS011;6702;47.068;15.458;2022-10-17T11:17:51;18.45;;;17.15;;
13267;SDS011;6702;47.068;15.458;2022-10-17T11:20:59;20.25;;;18.65;;
13267;SDS011;6702;47.068;15.458;2022-10-17T11:24:09;19.95;;;18.40;;
13267;SDS011;6702;47.068;15.458;2022-10-17T11:27:19;18.42;;;16.98;;
13267;SDS011;6702;47.068;15.458;2022-10-17T11:30:22;19.35;;;17.80;;
13267;SDS011;6702;47.068;15.458;2022-10-17T11:33:29;19.38;;;17.83;;
13267;SDS011;6702;47.068;15.458;2022-10-17T11:36:41;18.48;;;16.95;;
13267;SDS011;6702;47.068;15.458;2022-10-17T11:39:48;18.25;;;16.95;;
13267;SDS011;6702;47.068;15.458;2022-10-17T11:42:58;18.83;;;17.33;;
13267;SDS011;6702;47.068;15.458;2022-10-17T11:46:05;18.98;;;17.67;;
13267;SDS011;6702;47.068;15.458;2022-10-17T11:49:17;17.05;;;15.85;;
13267;SDS011;6702;47.068;15.458;2022-10-17T11:52:27;19.38;;;17.98;;
13267;SDS011;6702;47.068;15.458;2022-10-17T11:55:57;17.08;;;15.82;;
13267;SDS011;6702;47.068;15.458;2022-10-17T11:59:07;18.88;;;17.58;;
13267;SDS011;6702;47.068;15.458;2022-10-17T12:02:29;18.63;;;17.33;;
13267;SDS011;6702;47.068;15.458;2022-10-17T12:05:39;17.45;;;15.98;;
13267;SDS011;6702;47.068;15.458;2022-10-17T12:08:48;18.48;;;17.17;;
13267;SDS011;6702;47.068;15.458;2022-10-17T12:11:57;17.27;;;16.10;;
13267;SDS011;6702;47.068;15.458;2022-10-17T12:18:32;18.48;;;17.02;;
13267;SDS011;6702;47.068;15.458;2022-10-17T12:24:57;18.75;;;17.40;;
13267;SDS011;6702;47.068;15.458;2022-10-17T12:28:08;19.00;;;17.60;;
13267;SDS011;6702;47.068;15.458;2022-10-17T12:31:22;17.92;;;16.63;;
13267;SDS011;6702;47.068;15.458;2022-10-17T12:34:34;17.80;;;16.42;;
13267;SDS011;6702;47.068;15.458;2022-10-17T12:41:27;19.38;;;17.92;;
13267;SDS011;6702;47.068;15.458;2022-10-17T12:44:56;21.30;;;19.85;;
13267;SDS011;6702;47.068;15.458;2022-10-17T12:48:00;20.17;;;18.67;;
13267;SDS011;6702;47.068;15.458;2022-10-17T12:51:04;20.83;;;19.27;;
13267;SDS011;6702;47.068;15.458;2022-10-17T12:54:29;20.70;;;18.73;;
13267;SDS011;6702;47.068;15.458;2022-10-17T12:57:52;20.65;;;19.10;;
13267;SDS011;6702;47.068;15.458;2022-10-17T13:00:59;22.70;;;21.00;;
13267;SDS011;6702;47.068;15.458;2022-10-17T13:04:24;20.13;;;18.52;;
13267;SDS011;6702;47.068;15.458;2022-10-17T13:07:28;21.88;;;20.15;;
13267;SDS011;6702;47.068;15.458;2022-10-17T13:10:32;20.35;;;18.85;;
13267;SDS011;6702;47.068;15.458;2022-10-17T13:13:44;22.75;;;21.05;;
13267;SDS011;6702;47.068;15.458;2022-10-17T13:16:50;20.13;;;18.63;;
13267;SDS011;6702;47.068;15.458;2022-10-17T13:19:56;23.05;;;21.30;;
13267;SDS011;6702;47.068;15.458;2022-10-17T13:23:00;23.55;;;21.67;;
13267;SDS011;6702;47.068;15.458;2022-10-17T13:26:05;22.00;;;20.30;;
13267;SDS011;6702;47.068;15.458;2022-10-17T13:29:14;23.60;;;21.80;;
13267;SDS011;6702;47.068;15.458;2022-10-17T13:32:18;21.30;;;19.42;;
13267;SDS011;6702;47.068;15.458;2022-10-17T13:35:25;23.10;;;21.20;;
13267;SDS011;6702;47.068;15.458;2022-10-17T13:38:50;24.90;;;22.65;;
13267;SDS011;6702;47.068;15.458;2022-10-17T13:41:54;25.33;;;23.02;;
13267;SDS011;6702;47.068;15.458;2022-10-17T13:44:59;24.40;;;22.50;;
13267;SDS011;6702;47.068;15.458;2022-10-17T13:48:03;24.80;;;22.65;;
13267;SDS011;6702;47.068;15.458;2022-10-17T13:51:11;24.95;;;22.75;;
13267;SDS011;6702;47.068;15.458;2022-10-17T13:54:23;24.05;;;21.75;;
13267;SDS011;6702;47.068;15.458;2022-10-17T13:57:37;25.70;;;23.50;;
13267;SDS011;6702;47.068;15.458;2022-10-17T14:00:40;26.00;;;23.60;;
13267;SDS011;6702;47.068;15.458;2022-10-17T14:03:45;24.50;;;22.40;;
13267;SDS011;6702;47.068;15.458;2022-10-17T14:07:02;26.20;;;23.80;;
13267;SDS011;6702;47.068;15.458;2022-10-17T14:10:16;23.50;;;21.43;;
13267;SDS011;6702;47.068;15.458;2022-10-17T14:13:21;24.83;;;22.53;;
13267;SDS011;6702;47.068;15.458;2022-10-17T14:16:26;27.67;;;24.97;;
13267;SDS011;6702;47.068;15.458;2022-10-17T14:19:35;28.10;;;25.10;;
13267;SDS011;6702;47.068;15.458;2022-10-17T14:22:40;28.03;;;25.50;;
13267;SDS011;6702;47.068;15.458;2022-10-17T14:26:02;29.30;;;26.40;;
13267;SDS011;6702;47.068;15.458;2022-10-17T14:29:19;26.60;;;24.10;;
13267;SDS011;6702;47.068;15.458;2022-10-17T14:32:25;33.13;;;27.00;;
13267;SDS011;6702;47.068;15.458;2022-10-17T14:35:29;26.50;;;23.90;;
13267;SDS011;6702;47.068;15.458;2022-10-17T14:38:46;26.97;;;24.40;;
13267;SDS011;6702;47.068;15.458;2022-10-17T14:41:52;30.10;;;27.10;;
13267;SDS011;6702;47.068;15.458;2022-10-17T14:45:04;28.13;;;25.53;;
13267;SDS011;6702;47.068;15.458;2022-10-17T14:48:10;30.10;;;27.07;;
13267;SDS011;6702;47.068;15.458;2022-10-17T14:51:17;29.37;;;26.53;;
13267;SDS011;6702;47.068;15.458;2022-10-17T14:54:22;30.10;;;27.13;;
13267;SDS011;6702;47.068;15.458;2022-10-17T14:57:40;27.80;;;25.03;;
13267;SDS011;6702;47.068;15.458;2022-10-17T15:00:45;29.97;;;26.77;;
13267;SDS011;6702;47.068;15.458;2022-10-17T15:03:48;27.10;;;24.20;;
13267;SDS011;6702;47.068;15.458;2022-10-17T15:06:52;26.70;;;24.30;;
13267;SDS011;6702;47.068;15.458;2022-10-17T15:09:58;29.17;;;26.27;;
13267;SDS011;6702;47.068;15.458;2022-10-17T15:13:01;29.40;;;26.23;;
13267;SDS011;6702;47.068;15.458;2022-10-17T15:16:25;28.30;;;25.43;;
13267;SDS011;6702;47.068;15.458;2022-10-17T15:19:32;30.60;;;27.50;;
13267;SDS011;6702;47.068;15.458;2022-10-17T15:22:35;29.97;;;27.17;;
13267;SDS011;6702;47.068;15.458;2022-10-17T15:25:40;28.30;;;25.53;;
13267;SDS011;6702;47.068;15.458;2022-10-17T15:28:43;28.53;;;25.67;;
13267;SDS011;6702;47.068;15.458;2022-10-17T15:31:47;29.67;;;26.77;;
13267;SDS011;6702;47.068;15.458;2022-10-17T15:34:50;30.50;;;26.20;;
13267;SDS011;6702;47.068;15.458;2022-10-17T15:37:54;30.40;;;26.27;;
13267;SDS011;6702;47.068;15.458;2022-10-17T15:40:58;29.73;;;26.97;;
13267;SDS011;6702;47.068;15.458;2022-10-17T15:44:01;27.10;;;24.30;;
13267;SDS011;6702;47.068;15.458;2022-10-17T15:47:04;28.60;;;25.73;;
13267;SDS011;6702;47.068;15.458;2022-10-17T15:50:12;29.30;;;26.40;;
13267;SDS011;6702;47.068;15.458;2022-10-17T15:53:16;29.00;;;25.93;;
13267;SDS011;6702;47.068;15.458;2022-10-17T15:56:22;29.30;;;26.20;;
13267;SDS011;6702;47.068;15.458;2022-10-17T15:59:28;29.70;;;26.50;;
13267;SDS011;6702;47.068;15.458;2022-10-17T16:02:34;30.83;;;27.60;;
13267;SDS011;6702;47.068;15.458;2022-10-17T16:05:38;31.70;;;27.50;;
13267;SDS011;6702;47.068;15.458;2022-10-17T16:08:41;31.87;;;28.97;;
13267;SDS011;6702;47.068;15.458;2022-10-17T16:11:45;29.90;;;27.30;;
13267;SDS011;6702;47.068;15.458;2022-10-17T16:14:48;32.87;;;27.50;;
13267;SDS011;6702;47.068;15.458;2022-10-17T16:17:52;28.50;;;25.60;;
13267;SDS011;6702;47.068;15.458;2022-10-17T16:20:56;29.33;;;26.37;;
13267;SDS011;6702;47.068;15.458;2022-10-17T16:24:00;30.70;;;27.80;;
13267;SDS011;6702;47.068;15.458;2022-10-17T16:27:05;27.60;;;24.90;;
13267;SDS011;6702;47.068;15.458;2022-10-17T16:30:09;30.43;;;27.53;;
13267;SDS011;6702;47.068;15.458;2022-10-17T16:33:12;33.60;;;30.20;;
13267;SDS011;6702;47.068;15.458;2022-10-17T16:36:15;34.07;;;30.70;;
13267;SDS011;6702;47.068;15.458;2022-10-17T16:39:19;33.93;;;30.33;;
13267;SDS011;6702;47.068;15.458;2022-10-17T16:42:23;32.10;;;28.97;;
13267;SDS011;6702;47.068;15.458;2022-10-17T16:45:27;36.73;;;33.07;;
13267;SDS011;6702;47.068;15.458;2022-10-17T16:48:30;46.70;;;41.70;;
13267;SDS011;6702;47.068;15.458;2022-10-17T16:51:33;44.33;;;39.80;;
13267;SDS011;6702;47.068;15.458;2022-10-17T16:54:37;37.87;;;33.83;;
13267;SDS011;6702;47.068;15.458;2022-10-17T16:57:43;30.07;;;26.97;;
13267;SDS011;6702;47.068;15.458;2022-10-17T17:00:49;33.47;;;30.07;;
13267;SDS011;6702;47.068;15.458;2022-10-17T17:03:53;37.80;;;30.00;;
13267;SDS011;6702;47.068;15.458;2022-10-17T17:06:58;31.90;;;28.50;;
13267;SDS011;6702;47.068;15.458;2022-10-17T17:10:02;31.17;;;28.10;;
13267;SDS011;6702;47.068;15.458;2022-10-17T17:13:07;31.47;;;27.77;;
13267;SDS011;6702;47.068;15.458;2022-10-17T17:16:11;33.20;;;27.20;;
13267;SDS011;6702;47.068;15.458;2022-10-17T17:19:19;29.10;;;25.90;;
13267;SDS011;6702;47.068;15.458;2022-10-17T17:22:22;29.77;;;26.30;;
13267;SDS011;6702;47.068;15.458;2022-10-17T17:25:27;28.90;;;25.90;;
13267;SDS011;6702;47.068;15.458;2022-10-17T17:28:32;36.73;;;28.53;;
13267;SDS011;6702;47.068;15.458;2022-10-17T17:31:37;32.67;;;29.17;;
13267;SDS011;6702;47.068;15.458;2022-10-17T17:34:42;44.33;;;39.70;;
13267;SDS011;6702;47.068;15.458;2022-10-17T17:37:45;44.80;;;40.07;;
13267;SDS011;6702;47.068;15.458;2022-10-17T17:40:49;58.17;;;45.80;;
13267;SDS011;6702;47.068;15.458;2022-10-17T17:43:55;38.60;;;33.30;;
13267;SDS011;6702;47.068;15.458;2022-10-17T17:46:59;67.27;;;50.20;;
13267;SDS011;6702;47.068;15.458;2022-10-17T17:50:03;45.23;;;36.40;;
13267;SDS011;6702;47.068;15.458;2022-10-17T17:53:08;50.20;;;39.33;;
13267;SDS011;6702;47.068;15.458;2022-10-17T17:56:14;61.67;;;42.20;;
13267;SDS011;6702;47.068;15.458;2022-10-17T17:59:20;43.20;;;36.80;;
13267;SDS011;6702;47.068;15.458;2022-10-17T18:02:24;54.50;;;39.57;;
13267;SDS011;6702;47.068;15.458;2022-10-17T18:05:28;67.70;;;46.90;;
13267;SDS011;6702;47.068;15.458;2022-10-17T18:08:32;65.30;;;46.70;;
13267;SDS011;6702;47.068;15.458;2022-10-17T18:11:40;58.27;;;40.80;;
13267;SDS011;6702;47.068;15.458;2022-10-17T18:14:45;53.03;;;40.13;;
13267;SDS011;6702;47.068;15.458;2022-10-17T18:17:50;39.17;;;32.00;;
13267;SDS011;6702;47.068;15.458;2022-10-17T18:20:54;50.37;;;37.43;;
13267;SDS011;6702;47.068;15.458;2022-10-17T18:24:04;41.67;;;32.07;;
13267;SDS011;6702;47.068;15.458;2022-10-17T18:27:09;59.73;;;37.10;;
13267;SDS011;6702;47.068;15.458;2022-10-17T18:30:15;62.30;;;41.23;;
13267;SDS011;6702;47.068;15.458;2022-10-17T18:33:24;75.17;;;45.80;;
13267;SDS011;6702;47.068;15.458;2022-10-17T18:36:28;65.43;;;41.27;;
13267;SDS011;6702;47.068;15.458;2022-10-17T18:39:34;52.50;;;35.00;;
13267;SDS011;6702;47.068;15.458;2022-10-17T18:42:40;47.40;;;35.90;;
13267;SDS011;6702;47.068;15.458;2022-10-17T18:45:47;40.90;;;33.27;;
13267;SDS011;6702;47.068;15.458;2022-10-17T18:48:52;47.77;;;37.10;;
13267;SDS011;6702;47.068;15.458;2022-10-17T18:51:56;44.70;;;34.27;;
13267;SDS011;6702;47.068;15.458;2022-10-17T18:55:01;39.40;;;33.67;;
13267;SDS011;6702;47.068;15.458;2022-10-17T18:58:05;37.93;;;33.47;;
13267;SDS011;6702;47.068;15.458;2022-10-17T19:01:11;44.07;;;33.53;;
13267;SDS011;6702;47.068;15.458;2022-10-17T19:04:18;37.93;;;31.80;;
13267;SDS011;6702;47.068;15.458;2022-10-17T19:07:22;32.53;;;29.07;;
13267;SDS011;6702;47.068;15.458;2022-10-17T19:10:26;31.80;;;28.20;;
13267;SDS011;6702;47.068;15.458;2022-10-17T19:13:30;32.07;;;28.03;;
13267;SDS011;6702;47.068;15.458;2022-10-17T19:16:35;30.70;;;27.40;;
13267;SDS011;6702;47.068;15.458;2022-10-17T19:19:39;30.37;;;27.17;;
13267;SDS011;6702;47.068;15.458;2022-10-17T19:22:43;29.37;;;26.53;;
13267;SDS011;6702;47.068;15.458;2022-10-17T19:25:47;28.63;;;25.53;;
13267;SDS011;6702;47.068;15.458;2022-10-17T19:28:52;34.60;;;26.70;;
13267;SDS011;6702;47.068;15.458;2022-10-17T19:31:57;30.07;;;27.17;;
13267;SDS011;6702;47.068;15.458;2022-10-17T19:35:01;28.97;;;25.50;;
13267;SDS011;6702;47.068;15.458;2022-10-17T19:38:06;29.00;;;25.90;;
13267;SDS011;6702;47.068;15.458;2022-10-17T19:41:10;29.87;;;26.70;;
13267;SDS011;6702;47.068;15.458;2022-10-17T19:44:16;30.40;;;27.17;;
13267;SDS011;6702;47.068;15.458;2022-10-17T19:47:21;28.57;;;25.50;;
13267;SDS011;6702;47.068;15.458;2022-10-17T19:50:24;29.23;;;26.40;;
13267;SDS011;6702;47.068;15.458;2022-10-17T19:53:28;28.83;;;25.87;;
13267;SDS011;6702;47.068;15.458;2022-10-17T19:56:32;30.70;;;25.77;;
13267;SDS011;6702;47.068;15.458;2022-10-17T19:59:38;28.63;;;25.83;;
13267;SDS011;6702;47.068;15.458;2022-10-17T20:02:44;30.13;;;26.40;;
13267;SDS011;6702;47.068;15.458;2022-10-17T20:05:48;32.57;;;26.53;;
13267;SDS011;6702;47.068;15.458;2022-10-17T20:08:51;29.10;;;26.00;;
13267;SDS011;6702;47.068;15.458;2022-10-17T20:11:56;30.27;;;26.57;;
13267;SDS011;6702;47.068;15.458;2022-10-17T20:14:59;31.10;;;27.00;;
13267;SDS011;6702;47.068;15.458;2022-10-17T20:18:05;27.80;;;24.80;;
13267;SDS011;6702;47.068;15.458;2022-10-17T20:21:09;28.90;;;26.00;;
13267;SDS011;6702;47.068;15.458;2022-10-17T20:24:15;28.50;;;23.80;;
13267;SDS011;6702;47.068;15.458;2022-10-17T20:27:19;30.10;;;26.00;;
13267;SDS011;6702;47.068;15.458;2022-10-17T20:30:27;29.10;;;26.13;;
13267;SDS011;6702;47.068;15.458;2022-10-17T20:33:32;31.93;;;26.53;;
13267;SDS011;6702;47.068;15.458;2022-10-17T20:36:35;30.63;;;24.73;;
13267;SDS011;6702;47.068;15.458;2022-10-17T20:39:38;26.03;;;23.50;;
13267;SDS011;6702;47.068;15.458;2022-10-17T20:42:41;29.23;;;23.50;;
13267;SDS011;6702;47.068;15.458;2022-10-17T20:45:45;28.10;;;24.97;;
13267;SDS011;6702;47.068;15.458;2022-10-17T20:48:53;25.63;;;22.93;;
13267;SDS011;6702;47.068;15.458;2022-10-17T20:51:59;28.70;;;24.80;;
13267;SDS011;6702;47.068;15.458;2022-10-17T20:55:02;28.83;;;25.83;;
13267;SDS011;6702;47.068;15.458;2022-10-17T20:58:06;25.30;;;22.80;;
13267;SDS011;6702;47.068;15.458;2022-10-17T21:01:10;31.17;;;23.20;;
13267;SDS011;6702;47.068;15.458;2022-10-17T21:04:15;25.43;;;22.93;;
13267;SDS011;6702;47.068;15.458;2022-10-17T21:07:38;26.50;;;23.87;;
13267;SDS011;6702;47.068;15.458;2022-10-17T21:10:41;28.23;;;25.17;;
13267;SDS011;6702;47.068;15.458;2022-10-17T21:13:44;26.93;;;24.00;;
13267;SDS011;6702;47.068;15.458;2022-10-17T21:16:48;29.37;;;25.23;;
13267;SDS011;6702;47.068;15.458;2022-10-17T21:19:53;26.63;;;23.90;;
13267;SDS011;6702;47.068;15.458;2022-10-17T21:22:57;26.90;;;24.10;;
13267;SDS011;6702;47.068;15.458;2022-10-17T21:26:01;28.67;;;25.77;;
13267;SDS011;6702;47.068;15.458;2022-10-17T21:29:04;28.40;;;24.47;;
13267;SDS011;6702;47.068;15.458;2022-10-17T21:32:08;26.67;;;23.83;;
13267;SDS011;6702;47.068;15.458;2022-10-17T21:35:33;29.70;;;24.60;;
13267;SDS011;6702;47.068;15.458;2022-10-17T21:38:36;27.27;;;24.30;;
13267;SDS011;6702;47.068;15.458;2022-10-17T21:41:40;27.17;;;24.27;;
13267;SDS011;6702;47.068;15.458;2022-10-17T21:44:43;26.10;;;23.37;;
13267;SDS011;6702;47.068;15.458;2022-10-17T21:47:47;25.83;;;23.13;;
13267;SDS011;6702;47.068;15.458;2022-10-17T21:51:13;29.00;;;24.10;;
13267;SDS011;6702;47.068;15.458;2022-10-17T21:54:18;27.97;;;24.47;;
13267;SDS011;6702;47.068;15.458;2022-10-17T21:57:23;28.47;;;25.37;;
13267;SDS011;6702;47.068;15.458;2022-10-17T22:00:26;26.37;;;23.80;;
13267;SDS011;6702;47.068;15.458;2022-10-17T22:03:30;26.67;;;23.77;;
13267;SDS011;6702;47.068;15.458;2022-10-17T22:06:36;24.80;;;22.43;;
13267;SDS011;6702;47.068;15.458;2022-10-17T22:09:41;26.30;;;23.70;;
13267;SDS011;6702;47.068;15.458;2022-10-17T22:12:44;26.00;;;23.17;;
13267;SDS011;6702;47.068;15.458;2022-10-17T22:15:47;26.40;;;23.60;;
13267;SDS011;6702;47.068;15.458;2022-10-17T22:18:50;25.27;;;22.60;;
13267;SDS011;6702;47.068;15.458;2022-10-17T22:21:55;26.77;;;24.13;;
13267;SDS011;6702;47.068;15.458;2022-10-17T22:24:58;23.97;;;21.63;;
13267;SDS011;6702;47.068;15.458;2022-10-17T22:28:01;25.10;;;22.63;;
13267;SDS011;6702;47.068;15.458;2022-10-17T22:31:05;24.30;;;21.80;;
13267;SDS011;6702;47.068;15.458;2022-10-17T22:34:09;25.73;;;21.57;;
13267;SDS011;6702;47.068;15.458;2022-10-17T22:37:15;23.80;;;21.50;;
13267;SDS011;6702;47.068;15.458;2022-10-17T22:40:19;26.03;;;23.33;;
13267;SDS011;6702;47.068;15.458;2022-10-17T22:43:22;22.37;;;19.97;;
13267;SDS011;6702;47.068;15.458;2022-10-17T22:46:25;22.03;;;19.90;;
13267;SDS011;6702;47.068;15.458;2022-10-17T22:49:28;23.93;;;21.53;;
13267;SDS011;6702;47.068;15.458;2022-10-17T22:52:34;22.17;;;19.87;;